Time;durP1;ratioP1;P1;durP2;ratioP2;P2;SDS_P1;SDS_P2;PMS_P1;PMS_P2;Temp;Humidity;BMP_temperature;BMP_pressure;BME280_temperature;BME280_humidity;BME280_pressure;Samples;Min_cycle;Max_cycle;Signal;HPM_P1;HPM_P2
2023/09/26 00:02:13;;;;;;;10.73;6.68;;;;;;;;;;5011022;28;20077;-62
2023/09/26 00:04:40;;;;;;;12.23;7.40;;;;;;;;;;5009715;28;20474;-63
2023/09/26 00:07:08;;;;;;;10.82;7.32;;;;;;;;;;5011108;28;20053;-63
2023/09/26 00:09:35;;;;;;;12.75;7.55;;;;;;;;;;4992983;28;20046;-63
2023/09/26 00:12:04;;;;;;;12.50;7.50;;;;;;;;;;4991070;28;20042;-62
2023/09/26 00:14:31;;;;;;;12.65;7.70;;;;;;;;;;4989563;28;20053;-63
2023/09/26 00:16:59;;;;;;;11.43;7.88;;;;;;;;;;4990034;28;20112;-63
2023/09/26 00:19:27;;;;;;;11.93;7.57;;;;;;;;;;4997699;28;20052;-63
2023/09/26 00:21:55;;;;;;;10.57;7.13;;;;;;;;;;4991214;28;20050;-63
2023/09/26 00:24:22;;;;;;;11.98;7.38;;;;;;;;;;4996779;28;20042;-63
2023/09/26 00:26:49;;;;;;;15.30;7.38;;;;;;;;;;4980527;28;20058;-62
2023/09/26 00:29:18;;;;;;;14.13;7.85;;;;;;;;;;4989069;28;20042;-63
2023/09/26 00:31:45;;;;;;;10.45;7.53;;;;;;;;;;4990865;28;20108;-63
2023/09/26 00:34:13;;;;;;;11.05;7.45;;;;;;;;;;4997123;28;20042;-63
2023/09/26 00:36:40;;;;;;;10.30;6.95;;;;;;;;;;4993560;28;20449;-63
2023/09/26 00:39:07;;;;;;;8.70;6.45;;;;;;;;;;4985543;28;20073;-63
2023/09/26 00:41:34;;;;;;;12.75;7.13;;;;;;;;;;4983549;28;20133;-63
2023/09/26 00:44:02;;;;;;;10.57;7.07;;;;;;;;;;4985859;28;20043;-63
2023/09/26 00:46:31;;;;;;;9.55;6.75;;;;;;;;;;4990476;28;20042;-62
2023/09/26 00:48:58;;;;;;;10.07;6.63;;;;;;;;;;4990043;28;20046;-63
2023/09/26 00:51:25;;;;;;;8.88;6.88;;;;;;;;;;4984755;28;20118;-63
2023/09/26 00:53:53;;;;;;;11.05;6.78;;;;;;;;;;4991599;28;20065;-63
2023/09/26 00:56:20;;;;;;;12.10;7.35;;;;;;;;;;4993576;28;20049;-63
2023/09/26 00:58:48;;;;;;;15.88;8.27;;;;;;;;;;4988751;28;20125;-63
2023/09/26 01:01:15;;;;;;;13.63;8.20;;;;;;;;;;4988894;28;20405;-63
2023/09/26 01:03:46;;;;;;;14.35;7.90;;;;;;;;;;4990503;28;20045;-63
2023/09/26 01:06:13;;;;;;;15.57;8.80;;;;;;;;;;4993833;28;20054;-63
2023/09/26 01:08:40;;;;;;;11.30;7.97;;;;;;;;;;4987590;28;20490;-63
2023/09/26 01:11:08;;;;;;;12.38;7.47;;;;;;;;;;4985100;28;20538;-63
2023/09/26 01:13:35;;;;;;;11.45;7.97;;;;;;;;;;4997485;28;20481;-63
2023/09/26 01:16:15;;;;;;;11.30;7.55;;;;;;;;;;4999842;28;20533;-63
2023/09/26 01:18:43;;;;;;;12.73;7.93;;;;;;;;;;4986911;28;20054;-62
2023/09/26 01:21:10;;;;;;;10.25;7.50;;;;;;;;;;4989402;28;20139;-62
2023/09/26 01:23:38;;;;;;;11.80;7.72;;;;;;;;;;4974176;28;20057;-63
2023/09/26 01:26:07;;;;;;;12.35;7.60;;;;;;;;;;4971968;28;20051;-62
2023/09/26 01:28:36;;;;;;;11.52;7.57;;;;;;;;;;4967057;28;20125;-63
2023/09/26 01:31:03;;;;;;;9.77;7.20;;;;;;;;;;4976321;28;20050;-62
2023/09/26 01:33:30;;;;;;;17.80;7.60;;;;;;;;;;4970832;28;20047;-63
2023/09/26 01:35:58;;;;;;;11.77;7.13;;;;;;;;;;4973381;28;20050;-62
2023/09/26 01:38:25;;;;;;;10.65;7.03;;;;;;;;;;4971096;28;20133;-63
2023/09/26 01:40:52;;;;;;;10.85;7.03;;;;;;;;;;4948044;28;20138;-63
2023/09/26 01:43:21;;;;;;;11.80;7.45;;;;;;;;;;4966301;28;20066;-63
2023/09/26 01:45:48;;;;;;;11.60;7.80;;;;;;;;;;4975601;28;20051;-63
2023/09/26 01:48:16;;;;;;;13.18;7.78;;;;;;;;;;4975135;28;20050;-62
2023/09/26 01:50:43;;;;;;;13.38;8.63;;;;;;;;;;4978298;28;20097;-62
2023/09/26 01:53:13;;;;;;;13.52;7.95;;;;;;;;;;4977577;28;20490;-62
2023/09/26 01:55:41;;;;;;;11.30;7.95;;;;;;;;;;4974364;28;20050;-62
2023/09/26 01:58:08;;;;;;;11.98;7.50;;;;;;;;;;4966859;28;20051;-62
2023/09/26 02:00:37;;;;;;;13.50;8.32;;;;;;;;;;4966862;28;20502;-63
2023/09/26 02:03:04;;;;;;;11.77;8.07;;;;;;;;;;4976358;28;20053;-62
2023/09/26 02:05:31;;;;;;;11.02;8.25;;;;;;;;;;4971587;28;20062;-63
2023/09/26 02:07:58;;;;;;;12.05;8.05;;;;;;;;;;4970289;28;20058;-63
2023/09/26 02:10:26;;;;;;;48.25;9.32;;;;;;;;;;4972492;28;20051;-63
2023/09/26 02:12:53;;;;;;;13.32;8.23;;;;;;;;;;4972207;28;20062;-62
2023/09/26 02:15:20;;;;;;;11.75;7.95;;;;;;;;;;4971145;28;20414;-62
2023/09/26 02:17:49;;;;;;;12.57;8.05;;;;;;;;;;4975153;28;20051;-62
2023/09/26 02:20:17;;;;;;;14.18;8.23;;;;;;;;;;4973638;28;20043;-62
2023/09/26 02:22:45;;;;;;;11.23;7.65;;;;;;;;;;4972153;28;20065;-62
2023/09/26 02:25:13;;;;;;;11.45;7.57;;;;;;;;;;4976858;28;20087;-62
2023/09/26 02:27:41;;;;;;;10.70;7.47;;;;;;;;;;4951727;28;20062;-62
2023/09/26 02:30:10;;;;;;;11.20;7.55;;;;;;;;;;4983479;28;20145;-63
2023/09/26 02:32:37;;;;;;;12.73;7.70;;;;;;;;;;4976226;28;20042;-62
2023/09/26 02:35:07;;;;;;;12.20;8.27;;;;;;;;;;4966944;28;20407;-63
2023/09/26 02:37:35;;;;;;;12.27;7.93;;;;;;;;;;4977059;28;20371;-62
2023/09/26 02:40:05;;;;;;;12.13;8.13;;;;;;;;;;4974058;28;20047;-63
2023/09/26 02:42:33;;;;;;;11.23;7.75;;;;;;;;;;4969417;28;20058;-62
2023/09/26 02:45:00;;;;;;;10.98;7.78;;;;;;;;;;4974285;28;20047;-63
2023/09/26 02:47:28;;;;;;;11.25;8.02;;;;;;;;;;4970942;28;20499;-63
2023/09/26 02:49:55;;;;;;;10.60;7.68;;;;;;;;;;4969701;28;20051;-63
2023/09/26 02:52:24;;;;;;;10.30;7.13;;;;;;;;;;4956527;28;20398;-63
2023/09/26 02:54:51;;;;;;;11.27;7.80;;;;;;;;;;4971060;28;20054;-64
2023/09/26 02:57:19;;;;;;;13.07;8.05;;;;;;;;;;4968884;28;20046;-63
2023/09/26 02:59:46;;;;;;;11.20;7.70;;;;;;;;;;4973630;28;20051;-63
2023/09/26 03:02:13;;;;;;;12.32;7.95;;;;;;;;;;4974932;28;20046;-62
2023/09/26 03:04:41;;;;;;;11.27;8.10;;;;;;;;;;4976881;28;20054;-63
2023/09/26 03:07:09;;;;;;;13.32;8.30;;;;;;;;;;4978747;28;20074;-62
2023/09/26 03:09:37;;;;;;;9.60;7.50;;;;;;;;;;4969102;28;20050;-63
2023/09/26 03:12:06;;;;;;;13.48;7.75;;;;;;;;;;4969244;28;20061;-62
2023/09/26 03:14:33;;;;;;;17.70;9.05;;;;;;;;;;4969878;28;20384;-62
2023/09/26 03:17:00;;;;;;;13.43;8.48;;;;;;;;;;4957346;28;20062;-62
2023/09/26 03:19:28;;;;;;;14.02;8.57;;;;;;;;;;4971229;28;20117;-63
2023/09/26 03:21:55;;;;;;;16.80;9.60;;;;;;;;;;4985300;28;20414;-62
2023/09/26 03:24:22;;;;;;;16.52;9.43;;;;;;;;;;4990794;28;20038;-63
2023/09/26 03:26:51;;;;;;;13.38;8.95;;;;;;;;;;4988457;28;20096;-62
2023/09/26 03:29:19;;;;;;;15.52;9.13;;;;;;;;;;4993026;28;20054;-63
2023/09/26 03:31:46;;;;;;;22.00;9.93;;;;;;;;;;4997218;28;20080;-62
2023/09/26 03:34:14;;;;;;;14.05;9.57;;;;;;;;;;4998629;28;20046;-63
2023/09/26 03:36:41;;;;;;;22.08;9.88;;;;;;;;;;5006772;28;20049;-63
2023/09/26 03:39:09;;;;;;;14.68;10.15;;;;;;;;;;4987735;28;20053;-63
2023/09/26 03:41:36;;;;;;;14.23;9.68;;;;;;;;;;4991557;28;20073;-63
2023/09/26 03:44:05;;;;;;;17.08;10.20;;;;;;;;;;4989849;28;20058;-63
2023/09/26 03:46:34;;;;;;;15.93;9.73;;;;;;;;;;4993000;28;20049;-63
2023/09/26 03:49:02;;;;;;;14.93;9.77;;;;;;;;;;4992293;28;20061;-63
2023/09/26 03:51:30;;;;;;;17.65;9.57;;;;;;;;;;4983913;28;20407;-63
2023/09/26 03:53:57;;;;;;;11.90;9.15;;;;;;;;;;4984271;28;20058;-62
2023/09/26 03:56:24;;;;;;;16.73;8.60;;;;;;;;;;4989851;28;20042;-63
2023/09/26 03:58:51;;;;;;;16.17;9.40;;;;;;;;;;4992482;28;20104;-62
2023/09/26 04:01:20;;;;;;;13.90;9.02;;;;;;;;;;4992931;28;20066;-64
2023/09/26 04:03:48;;;;;;;14.38;9.50;;;;;;;;;;4987553;28;20092;-62
2023/09/26 04:06:16;;;;;;;13.93;9.60;;;;;;;;;;4990482;28;20481;-64
2023/09/26 04:08:43;;;;;;;15.45;9.90;;;;;;;;;;4997908;28;20058;-62
2023/09/26 04:11:14;;;;;;;12.75;9.07;;;;;;;;;;4988666;28;20442;-63
2023/09/26 04:13:41;;;;;;;16.63;9.32;;;;;;;;;;4988441;28;20046;-62
2023/09/26 04:16:08;;;;;;;13.75;9.50;;;;;;;;;;4990186;28;20050;-63
2023/09/26 04:18:37;;;;;;;14.35;10.27;;;;;;;;;;4994902;28;20050;-63
2023/09/26 04:21:04;;;;;;;14.23;10.00;;;;;;;;;;4991029;28;20410;-63
2023/09/26 04:23:32;;;;;;;13.27;10.05;;;;;;;;;;4968283;28;20051;-62
2023/09/26 04:25:59;;;;;;;16.20;10.82;;;;;;;;;;4977205;28;20451;-63
2023/09/26 04:28:27;;;;;;;15.35;10.30;;;;;;;;;;4976119;28;20066;-62
2023/09/26 04:30:54;;;;;;;17.02;10.45;;;;;;;;;;4954637;28;20090;-64
2023/09/26 04:33:21;;;;;;;22.95;11.07;;;;;;;;;;4976100;28;20047;-63
2023/09/26 04:35:56;;;;;;;15.65;10.90;;;;;;;;;;4972607;28;20059;-63
2023/09/26 04:38:24;;;;;;;15.05;9.52;;;;;;;;;;4976780;28;20514;-63
2023/09/26 04:40:51;;;;;;;15.65;11.05;;;;;;;;;;4977181;28;20047;-62
2023/09/26 04:43:18;;;;;;;15.88;10.15;;;;;;;;;;4982458;28;20526;-63
2023/09/26 04:45:46;;;;;;;17.42;10.05;;;;;;;;;;4975369;28;20105;-62
2023/09/26 04:48:13;;;;;;;18.13;11.27;;;;;;;;;;4972644;28;20053;-62
2023/09/26 04:50:40;;;;;;;16.77;10.00;;;;;;;;;;4950357;28;20074;-62
2023/09/26 04:53:09;;;;;;;15.70;10.85;;;;;;;;;;4971140;28;20061;-63
2023/09/26 04:55:37;;;;;;;16.48;10.30;;;;;;;;;;4969888;28;20047;-63
2023/09/26 04:58:04;;;;;;;15.43;10.55;;;;;;;;;;4971176;28;20507;-62
2023/09/26 05:00:32;;;;;;;23.23;11.15;;;;;;;;;;4970271;28;20046;-63
2023/09/26 05:02:59;;;;;;;17.50;11.32;;;;;;;;;;4971822;28;20089;-63
2023/09/26 05:05:27;;;;;;;18.90;10.95;;;;;;;;;;4966227;28;20128;-62
2023/09/26 05:07:54;;;;;;;19.20;11.50;;;;;;;;;;4975098;28;20450;-62
2023/09/26 05:10:23;;;;;;;16.10;11.68;;;;;;;;;;4974821;28;20043;-62
2023/09/26 05:12:50;;;;;;;15.85;11.15;;;;;;;;;;4978420;28;20057;-63
2023/09/26 05:15:18;;;;;;;16.00;11.27;;;;;;;;;;4972153;28;20086;-63
2023/09/26 05:17:48;;;;;;;17.85;11.52;;;;;;;;;;4972903;28;20047;-63
2023/09/26 05:20:15;;;;;;;17.30;10.95;;;;;;;;;;4978396;28;20046;-63
2023/09/26 05:22:43;;;;;;;22.63;12.05;;;;;;;;;;4975389;28;20063;-63
2023/09/26 05:25:10;;;;;;;19.42;11.43;;;;;;;;;;4970103;28;20058;-62
2023/09/26 05:27:40;;;;;;;17.45;11.77;;;;;;;;;;4970473;28;20055;-62
2023/09/26 05:30:09;;;;;;;19.35;11.65;;;;;;;;;;4970924;28;20043;-64
2023/09/26 05:32:36;;;;;;;20.00;12.68;;;;;;;;;;4970642;28;20415;-63
2023/09/26 05:35:06;;;;;;;20.45;10.93;;;;;;;;;;4974655;28;20039;-63
2023/09/26 05:37:33;;;;;;;21.40;11.88;;;;;;;;;;4969420;28;20055;-63
2023/09/26 05:40:00;;;;;;;19.85;11.43;;;;;;;;;;4972000;28;20046;-63
2023/09/26 05:42:28;;;;;;;15.70;10.43;;;;;;;;;;4971941;28;20050;-63
2023/09/26 05:44:56;;;;;;;18.95;11.60;;;;;;;;;;4967733;28;20043;-62
2023/09/26 05:47:24;;;;;;;18.08;12.27;;;;;;;;;;4973215;28;20054;-63
2023/09/26 05:49:51;;;;;;;17.75;12.05;;;;;;;;;;4969010;28;20055;-63
2023/09/26 05:52:20;;;;;;;18.33;12.13;;;;;;;;;;4974963;28;20047;-62
2023/09/26 05:54:47;;;;;;;17.65;11.38;;;;;;;;;;4970033;28;20105;-63
2023/09/26 05:57:15;;;;;;;17.17;11.13;;;;;;;;;;4971756;28;20054;-62
2023/09/26 05:59:42;;;;;;;16.98;11.77;;;;;;;;;;4969309;28;20058;-62
2023/09/26 06:02:12;;;;;;;20.45;11.95;;;;;;;;;;4973020;28;20061;-62
2023/09/26 06:04:41;;;;;;;16.05;11.23;;;;;;;;;;4970460;28;20057;-64
2023/09/26 06:07:09;;;;;;;17.35;12.00;;;;;;;;;;4979769;28;20116;-62
2023/09/26 06:09:36;;;;;;;21.92;11.65;;;;;;;;;;4971887;28;20078;-63
2023/09/26 06:12:03;;;;;;;17.92;12.45;;;;;;;;;;4970395;28;20128;-64
2023/09/26 06:14:31;;;;;;;18.80;12.52;;;;;;;;;;4968096;28;20046;-64
2023/09/26 06:16:58;;;;;;;16.88;11.45;;;;;;;;;;4972640;28;20577;-63
2023/09/26 06:19:27;;;;;;;19.08;11.82;;;;;;;;;;4973983;28;20055;-62
2023/09/26 06:21:54;;;;;;;21.90;12.38;;;;;;;;;;4980078;28;20120;-63
2023/09/26 06:24:21;;;;;;;21.05;12.10;;;;;;;;;;4993459;28;20117;-63
2023/09/26 06:26:50;;;;;;;24.27;12.95;;;;;;;;;;4986702;28;20050;-63
2023/09/26 06:29:17;;;;;;;26.38;13.80;;;;;;;;;;4992484;28;20042;-62
2023/09/26 06:31:45;;;;;;;23.92;13.95;;;;;;;;;;4987150;28;20091;-63
2023/09/26 06:34:12;;;;;;;17.42;12.60;;;;;;;;;;4992089;28;20489;-63
2023/09/26 06:36:42;;;;;;;19.70;13.23;;;;;;;;;;4993390;28;20458;-62
2023/09/26 06:39:11;;;;;;;20.75;13.15;;;;;;;;;;4992608;28;20062;-63
2023/09/26 06:41:39;;;;;;;19.13;12.23;;;;;;;;;;4981474;28;20129;-63
2023/09/26 06:44:06;;;;;;;21.77;12.73;;;;;;;;;;4990312;28;20093;-63
2023/09/26 06:46:33;;;;;;;21.27;13.07;;;;;;;;;;4986480;28;20043;-63
2023/09/26 06:49:00;;;;;;;20.40;13.38;;;;;;;;;;4991190;28;20062;-62
2023/09/26 06:51:28;;;;;;;21.45;12.68;;;;;;;;;;4992799;28;20046;-63
2023/09/26 06:53:56;;;;;;;22.13;12.48;;;;;;;;;;4992610;28;20405;-63
2023/09/26 06:56:23;;;;;;;21.35;12.52;;;;;;;;;;4987407;28;20049;-63
2023/09/26 06:58:51;;;;;;;19.13;12.20;;;;;;;;;;4986066;28;20104;-63
2023/09/26 07:01:18;;;;;;;20.98;13.15;;;;;;;;;;4991782;28;20453;-62
2023/09/26 07:03:46;;;;;;;21.10;12.48;;;;;;;;;;4984678;28;20054;-62
2023/09/26 07:06:14;;;;;;;20.65;13.52;;;;;;;;;;4990281;28;20092;-62
2023/09/26 07:08:43;;;;;;;22.10;12.80;;;;;;;;;;4990411;28;20065;-62
2023/09/26 07:11:12;;;;;;;20.90;12.05;;;;;;;;;;4990577;28;20085;-62
2023/09/26 07:13:39;;;;;;;18.67;11.88;;;;;;;;;;4993129;28;20046;-63
2023/09/26 07:16:08;;;;;;;18.88;12.98;;;;;;;;;;4991493;28;20042;-62
2023/09/26 07:18:35;;;;;;;20.35;12.30;;;;;;;;;;4992714;28;20046;-63
2023/09/26 07:21:05;;;;;;;18.77;13.05;;;;;;;;;;4992594;28;20051;-63
2023/09/26 07:23:32;;;;;;;20.02;13.02;;;;;;;;;;4969225;28;20102;-63
2023/09/26 07:26:06;;;;;;;19.52;12.70;;;;;;;;;;4973028;28;20047;-63
2023/09/26 07:28:35;;;;;;;19.05;13.02;;;;;;;;;;4970169;28;20050;-63
2023/09/26 07:31:04;;;;;;;18.27;12.32;;;;;;;;;;4973906;28;20055;-63
2023/09/26 07:33:31;;;;;;;17.92;11.98;;;;;;;;;;4971911;28;20101;-63
2023/09/26 07:35:58;;;;;;;19.50;12.25;;;;;;;;;;4973549;28;20050;-63
2023/09/26 07:38:26;;;;;;;16.23;10.70;;;;;;;;;;4974545;28;20051;-62
2023/09/26 07:40:54;;;;;;;14.98;9.93;;;;;;;;;;4973697;28;20050;-63
2023/09/26 07:43:21;;;;;;;14.07;9.63;;;;;;;;;;4973500;28;20054;-63
2023/09/26 07:45:49;;;;;;;14.73;9.68;;;;;;;;;;4975554;28;20085;-62
2023/09/26 07:48:17;;;;;;;17.13;10.60;;;;;;;;;;4971431;28;20133;-63
2023/09/26 07:50:44;;;;;;;15.65;9.52;;;;;;;;;;4971869;28;20054;-63
2023/09/26 07:53:11;;;;;;;12.07;8.90;;;;;;;;;;4972787;28;20302;-62
2023/09/26 07:55:38;;;;;;;12.38;7.88;;;;;;;;;;4973342;28;20510;-62
2023/09/26 07:58:06;;;;;;;12.23;8.00;;;;;;;;;;4972382;28;20062;-63
2023/09/26 08:00:33;;;;;;;12.52;7.43;;;;;;;;;;4972691;28;20047;-62
2023/09/26 08:03:02;;;;;;;12.15;6.97;;;;;;;;;;4972100;28;20066;-63
2023/09/26 08:05:29;;;;;;;10.35;6.65;;;;;;;;;;4974861;28;20047;-62
2023/09/26 08:07:58;;;;;;;10.65;7.05;;;;;;;;;;4972971;28;20171;-62
2023/09/26 08:10:25;;;;;;;9.98;6.55;;;;;;;;;;4971889;28;20446;-63
2023/09/26 08:12:53;;;;;;;10.93;6.95;;;;;;;;;;4973890;28;20046;-62
2023/09/26 08:15:20;;;;;;;11.48;7.15;;;;;;;;;;4978337;28;20137;-63
2023/09/26 08:17:47;;;;;;;12.18;7.15;;;;;;;;;;4971424;28;20047;-62
2023/09/26 08:20:16;;;;;;;10.40;7.15;;;;;;;;;;4970638;28;20050;-62
2023/09/26 08:22:43;;;;;;;11.30;6.90;;;;;;;;;;4978010;28;20058;-62
2023/09/26 08:25:11;;;;;;;14.68;7.65;;;;;;;;;;4984929;28;20050;-63
2023/09/26 08:27:38;;;;;;;10.45;6.97;;;;;;;;;;4989969;28;20054;-63
2023/09/26 08:30:05;;;;;;;9.52;6.55;;;;;;;;;;4979337;28;20050;-63
2023/09/26 08:32:33;;;;;;;9.93;7.00;;;;;;;;;;4990278;28;20512;-63
2023/09/26 08:35:00;;;;;;;9.88;6.25;;;;;;;;;;4989526;28;20057;-63
2023/09/26 08:37:30;;;;;;;10.88;7.13;;;;;;;;;;4990939;28;20068;-63
2023/09/26 08:39:58;;;;;;;11.20;7.13;;;;;;;;;;4988207;28;20056;-63
2023/09/26 08:42:27;;;;;;;11.82;7.10;;;;;;;;;;4990458;28;20054;-62
2023/09/26 08:44:55;;;;;;;10.07;7.07;;;;;;;;;;5002033;28;20050;-63
2023/09/26 08:47:25;;;;;;;13.20;6.82;;;;;;;;;;4993222;28;20102;-63
2023/09/26 08:49:53;;;;;;;11.20;6.55;;;;;;;;;;4986042;28;20573;-63
2023/09/26 08:52:20;;;;;;;9.30;6.35;;;;;;;;;;4995080;28;20533;-63
2023/09/26 08:54:49;;;;;;;9.38;6.25;;;;;;;;;;4990840;28;20067;-63
2023/09/26 08:57:17;;;;;;;13.20;7.20;;;;;;;;;;4990204;28;20386;-63
2023/09/26 08:59:45;;;;;;;12.60;6.57;;;;;;;;;;4989852;28;20089;-63
2023/09/26 09:02:13;;;;;;;10.93;6.75;;;;;;;;;;4988848;28;20050;-62
2023/09/26 09:04:41;;;;;;;12.13;5.90;;;;;;;;;;4986801;28;20046;-63
2023/09/26 09:07:08;;;;;;;9.77;5.82;;;;;;;;;;4990962;28;20398;-63
2023/09/26 09:09:35;;;;;;;9.13;5.80;;;;;;;;;;4990687;28;20046;-63
2023/09/26 09:12:04;;;;;;;9.32;5.60;;;;;;;;;;4990868;28;20054;-63
2023/09/26 09:14:35;;;;;;;11.00;6.25;;;;;;;;;;4991482;28;20494;-63
2023/09/26 09:17:02;;;;;;;8.95;5.90;;;;;;;;;;4991825;28;20525;-63
2023/09/26 09:19:44;;;;;;;9.68;6.20;;;;;;;;;;4990920;28;20414;-63
2023/09/26 09:22:15;;;;;;;10.73;5.85;;;;;;;;;;4976142;28;20059;-63
2023/09/26 09:24:43;;;;;;;9.20;5.38;;;;;;;;;;4962180;28;20062;-63
2023/09/26 09:27:12;;;;;;;8.00;5.00;;;;;;;;;;4975570;28;20049;-63
2023/09/26 09:29:40;;;;;;;7.05;4.78;;;;;;;;;;4960665;28;20069;-63
2023/09/26 09:32:08;;;;;;;8.50;4.50;;;;;;;;;;4977110;28;20062;-63
2023/09/26 09:34:36;;;;;;;7.07;5.00;;;;;;;;;;4972446;28;20105;-63
2023/09/26 09:37:04;;;;;;;9.32;5.53;;;;;;;;;;4958036;28;20446;-63
2023/09/26 09:39:31;;;;;;;7.60;5.22;;;;;;;;;;4974668;28;20055;-63
2023/09/26 09:41:59;;;;;;;10.38;5.18;;;;;;;;;;4973838;28;20059;-63
2023/09/26 09:44:27;;;;;;;7.70;4.95;;;;;;;;;;4970606;28;20047;-63
2023/09/26 09:46:57;;;;;;;9.52;5.03;;;;;;;;;;4978908;28;20042;-63
2023/09/26 09:49:27;;;;;;;8.02;4.70;;;;;;;;;;4978441;28;20054;-63
2023/09/26 09:51:56;;;;;;;8.13;5.07;;;;;;;;;;4975992;28;20050;-63
2023/09/26 09:54:24;;;;;;;7.82;4.60;;;;;;;;;;4974562;28;20073;-64
2023/09/26 09:56:54;;;;;;;11.73;4.75;;;;;;;;;;4956083;28;20051;-63
2023/09/26 09:59:22;;;;;;;10.80;6.43;;;;;;;;;;4969707;28;20073;-64
2023/09/26 10:01:52;;;;;;;8.13;6.25;;;;;;;;;;4953312;28;20088;-63
2023/09/26 10:04:20;;;;;;;8.38;5.93;;;;;;;;;;4972306;28;20498;-63
2023/09/26 10:06:49;;;;;;;8.55;6.13;;;;;;;;;;4977565;28;20042;-63
2023/09/26 10:09:20;;;;;;;16.23;7.00;;;;;;;;;;4972978;28;20054;-63
2023/09/26 10:11:48;;;;;;;13.18;7.45;;;;;;;;;;4973735;28;20054;-64
2023/09/26 10:14:21;;;;;;;10.88;6.50;;;;;;;;;;4977392;28;20047;-64
2023/09/26 10:16:49;;;;;;;10.65;7.38;;;;;;;;;;4977486;28;20050;-64
2023/09/26 10:19:18;;;;;;;12.05;7.22;;;;;;;;;;4978464;28;20050;-62
2023/09/26 10:21:45;;;;;;;9.90;6.30;;;;;;;;;;4979850;28;20577;-63
2023/09/26 10:24:29;;;;;;;10.65;6.20;;;;;;;;;;4980887;28;20058;-63
2023/09/26 10:26:59;;;;;;;10.52;6.65;;;;;;;;;;4974226;28;20106;-62
2023/09/26 10:29:27;;;;;;;16.70;6.47;;;;;;;;;;4984412;28;20072;-63
2023/09/26 10:31:57;;;;;;;10.60;6.05;;;;;;;;;;4980146;28;20050;-63
2023/09/26 10:34:26;;;;;;;9.13;5.90;;;;;;;;;;4974434;28;20054;-62
2023/09/26 10:36:55;;;;;;;10.93;6.47;;;;;;;;;;4971201;28;20069;-63
2023/09/26 10:39:33;;;;;;;9.40;5.82;;;;;;;;;;4980976;28;20065;-63
2023/09/26 10:42:01;;;;;;;9.82;6.95;;;;;;;;;;4970857;28;20513;-63
2023/09/26 10:44:28;;;;;;;10.57;6.80;;;;;;;;;;4973372;28;20513;-63
2023/09/26 10:46:56;;;;;;;10.38;6.78;;;;;;;;;;4976299;28;20050;-63
2023/09/26 10:49:23;;;;;;;15.65;6.85;;;;;;;;;;4976283;28;20517;-63
2023/09/26 10:51:51;;;;;;;9.95;6.45;;;;;;;;;;4955984;28;20063;-63
2023/09/26 10:54:19;;;;;;;9.75;6.15;;;;;;;;;;4968768;28;20379;-63
2023/09/26 10:56:49;;;;;;;9.65;6.22;;;;;;;;;;4975176;28;20051;-63
2023/09/26 10:59:18;;;;;;;10.10;5.57;;;;;;;;;;4974855;28;20046;-63
2023/09/26 11:01:46;;;;;;;9.45;5.50;;;;;;;;;;4984367;28;20475;-63
2023/09/26 11:04:13;;;;;;;10.73;5.95;;;;;;;;;;4982332;28;20053;-63
2023/09/26 11:06:41;;;;;;;8.15;5.18;;;;;;;;;;4982453;28;20128;-63
2023/09/26 11:09:11;;;;;;;14.02;6.07;;;;;;;;;;4975909;28;20050;-63
2023/09/26 11:11:39;;;;;;;10.35;5.63;;;;;;;;;;4975553;28;20837;-63
2023/09/26 11:14:06;;;;;;;9.30;5.85;;;;;;;;;;4958990;28;20093;-63
2023/09/26 11:16:34;;;;;;;8.95;5.78;;;;;;;;;;4975651;28;20046;-63
2023/09/26 11:19:01;;;;;;;13.07;5.68;;;;;;;;;;4977732;28;20051;-64
2023/09/26 11:21:28;;;;;;;13.98;6.40;;;;;;;;;;4977271;28;20525;-63
2023/09/26 11:23:56;;;;;;;9.73;5.45;;;;;;;;;;4970565;28;20521;-63
2023/09/26 11:26:24;;;;;;;10.32;5.97;;;;;;;;;;4980635;28;20054;-63
2023/09/26 11:28:52;;;;;;;9.63;6.03;;;;;;;;;;4980327;28;20054;-63
2023/09/26 11:31:19;;;;;;;10.27;5.05;;;;;;;;;;4977860;28;20043;-62
2023/09/26 11:33:46;;;;;;;10.50;5.93;;;;;;;;;;4980192;28;20050;-63
2023/09/26 11:36:14;;;;;;;9.07;5.90;;;;;;;;;;4974650;28;20080;-63
2023/09/26 11:38:47;;;;;;;8.50;5.03;;;;;;;;;;4959721;28;20058;-63
2023/09/26 11:41:15;;;;;;;10.10;4.30;;;;;;;;;;4971304;28;20050;-64
2023/09/26 11:43:47;;;;;;;8.55;4.43;;;;;;;;;;4973963;28;20050;-63
2023/09/26 11:46:14;;;;;;;10.05;4.57;;;;;;;;;;4973732;28;20058;-63
2023/09/26 11:48:42;;;;;;;7.20;4.65;;;;;;;;;;4975527;28;20454;-63
2023/09/26 11:51:10;;;;;;;8.15;4.90;;;;;;;;;;4971571;28;20200;-63
2023/09/26 11:53:39;;;;;;;6.82;4.75;;;;;;;;;;4974799;28;20047;-63
2023/09/26 11:56:08;;;;;;;11.38;4.65;;;;;;;;;;4976777;28;20047;-63
2023/09/26 11:58:36;;;;;;;6.50;4.40;;;;;;;;;;4974969;28;20108;-64
2023/09/26 12:01:05;;;;;;;6.18;4.53;;;;;;;;;;4971978;28;20105;-64
2023/09/26 12:03:32;;;;;;;7.13;4.50;;;;;;;;;;4959004;28;20055;-64
2023/09/26 12:06:00;;;;;;;11.50;4.43;;;;;;;;;;4973253;28;20106;-64
2023/09/26 12:08:29;;;;;;;9.30;4.57;;;;;;;;;;4978256;28;20501;-63
2023/09/26 12:10:56;;;;;;;9.93;3.70;;;;;;;;;;4962649;28;20054;-64
2023/09/26 12:13:23;;;;;;;7.57;3.35;;;;;;;;;;4970830;28;20050;-63
2023/09/26 12:15:50;;;;;;;9.90;3.33;;;;;;;;;;4977608;28;20081;-63
2023/09/26 12:18:19;;;;;;;7.05;3.53;;;;;;;;;;4971875;28;20715;-64
2023/09/26 12:20:52;;;;;;;5.32;3.65;;;;;;;;;;4977905;28;20436;-63
2023/09/26 12:23:21;;;;;;;7.68;3.63;;;;;;;;;;4971083;28;20054;-63
2023/09/26 12:25:49;;;;;;;7.20;3.58;;;;;;;;;;4972171;28;20050;-64
2023/09/26 12:28:17;;;;;;;8.20;3.60;;;;;;;;;;4971220;28;20198;-63
2023/09/26 12:30:44;;;;;;;11.00;4.43;;;;;;;;;;4971657;28;20054;-63
2023/09/26 12:33:12;;;;;;;9.15;4.15;;;;;;;;;;4967609;28;20053;-64
2023/09/26 12:35:40;;;;;;;5.40;3.40;;;;;;;;;;4974685;28;20580;-63
2023/09/26 12:38:07;;;;;;;7.07;4.68;;;;;;;;;;4969676;28;20050;-63
2023/09/26 12:40:35;;;;;;;8.18;4.07;;;;;;;;;;4971659;28;20050;-63
2023/09/26 12:43:02;;;;;;;8.85;4.28;;;;;;;;;;4969737;28;20049;-63
2023/09/26 12:45:30;;;;;;;6.28;3.83;;;;;;;;;;4971014;28;20071;-63
2023/09/26 12:47:57;;;;;;;7.38;3.78;;;;;;;;;;4948971;28;20047;-64
2023/09/26 12:50:25;;;;;;;7.68;4.25;;;;;;;;;;4971736;28;20309;-63
2023/09/26 12:52:56;;;;;;;6.90;3.90;;;;;;;;;;4968948;28;20545;-64
2023/09/26 12:55:24;;;;;;;6.65;3.80;;;;;;;;;;4968412;28;20046;-63
2023/09/26 12:57:51;;;;;;;7.57;4.28;;;;;;;;;;4970822;28;20562;-64
2023/09/26 13:00:19;;;;;;;6.90;3.97;;;;;;;;;;4972097;28;20047;-64
2023/09/26 13:02:46;;;;;;;6.40;4.15;;;;;;;;;;4969862;28;20050;-64
2023/09/26 13:05:13;;;;;;;6.88;4.07;;;;;;;;;;4957060;28;20407;-63
2023/09/26 13:07:41;;;;;;;7.82;4.13;;;;;;;;;;4977673;28;20050;-63
2023/09/26 13:10:10;;;;;;;7.28;4.30;;;;;;;;;;4976070;28;20050;-64
2023/09/26 13:12:38;;;;;;;8.73;4.03;;;;;;;;;;4976439;28;20136;-64
2023/09/26 13:15:07;;;;;;;10.52;3.85;;;;;;;;;;4972632;28;20058;-64
2023/09/26 13:17:35;;;;;;;7.43;3.72;;;;;;;;;;4972339;28;20059;-64
2023/09/26 13:20:05;;;;;;;5.90;3.78;;;;;;;;;;4968208;28;20090;-64
2023/09/26 13:22:32;;;;;;;8.13;4.15;;;;;;;;;;4982211;28;20074;-64
2023/09/26 13:25:00;;;;;;;5.45;3.58;;;;;;;;;;4990228;28;20049;-64
2023/09/26 13:27:28;;;;;;;4.70;3.33;;;;;;;;;;4997902;28;20085;-64
2023/09/26 13:29:55;;;;;;;5.65;2.70;;;;;;;;;;4986610;28;20049;-64
2023/09/26 13:32:24;;;;;;;7.82;3.53;;;;;;;;;;4998287;28;20045;-63
2023/09/26 13:34:51;;;;;;;11.20;3.95;;;;;;;;;;4989143;28;20516;-64
2023/09/26 13:37:18;;;;;;;6.22;3.72;;;;;;;;;;4990354;28;20195;-63
2023/09/26 13:39:45;;;;;;;4.72;3.10;;;;;;;;;;4991902;28;20046;-64
2023/09/26 13:42:13;;;;;;;4.60;3.15;;;;;;;;;;4992692;28;20054;-63
2023/09/26 13:44:41;;;;;;;7.63;3.35;;;;;;;;;;4996462;28;20049;-63
2023/09/26 13:47:08;;;;;;;6.72;3.38;;;;;;;;;;4995533;28;20073;-64
2023/09/26 13:49:36;;;;;;;5.30;3.05;;;;;;;;;;4988430;28;20426;-63
2023/09/26 13:52:03;;;;;;;5.22;3.30;;;;;;;;;;4995394;28;20062;-63
2023/09/26 13:54:30;;;;;;;11.73;3.45;;;;;;;;;;4996628;28;21320;-63
2023/09/26 13:56:57;;;;;;;5.25;3.55;;;;;;;;;;4992503;28;20050;-63
2023/09/26 13:59:25;;;;;;;8.52;3.60;;;;;;;;;;4994850;28;20351;-64
2023/09/26 14:01:53;;;;;;;5.07;3.55;;;;;;;;;;4993490;28;20055;-64
2023/09/26 14:04:20;;;;;;;8.32;3.20;;;;;;;;;;4992805;28;20061;-64
2023/09/26 14:06:48;;;;;;;5.18;3.13;;;;;;;;;;4990748;28;20062;-63
2023/09/26 14:09:15;;;;;;;4.97;3.33;;;;;;;;;;4996380;28;20064;-64
2023/09/26 14:11:42;;;;;;;7.65;3.90;;;;;;;;;;4989945;28;20069;-64
2023/09/26 14:14:09;;;;;;;6.90;3.47;;;;;;;;;;4991161;28;20054;-63
2023/09/26 14:16:36;;;;;;;6.30;3.78;;;;;;;;;;4993670;28;20046;-64
2023/09/26 14:19:06;;;;;;;4.63;3.00;;;;;;;;;;4994120;28;20108;-64
2023/09/26 14:21:33;;;;;;;5.32;2.80;;;;;;;;;;4992440;28;20054;-64
2023/09/26 14:24:00;;;;;;;6.22;3.25;;;;;;;;;;4993663;28;20494;-63
2023/09/26 14:26:27;;;;;;;4.32;2.90;;;;;;;;;;4999286;28;20049;-64
2023/09/26 14:29:00;;;;;;;5.63;3.22;;;;;;;;;;4997385;28;20053;-63
2023/09/26 14:31:27;;;;;;;6.43;3.10;;;;;;;;;;4992355;28;20435;-63
2023/09/26 14:33:54;;;;;;;8.20;3.22;;;;;;;;;;4993116;28;20103;-64
2023/09/26 14:36:23;;;;;;;5.22;3.30;;;;;;;;;;4990433;28;20054;-64